Time;durP1;ratioP1;P1;durP2;ratioP2;P2;SDS_P1;SDS_P2;PMS_P1;PMS_P2;Temp;Humidity;BMP_temperature;BMP_pressure;BME280_temperature;BME280_humidity;BME280_pressure;Samples;Min_cycle;Max_cycle;Signal;HPM_P1;HPM_P2
2022/03/01 00:00:32;;;;;;;10.80;9.80;;;3.40;99.90;;;;;;4936883;29;20286;-61
2022/03/01 00:03:01;;;;;;;9.43;8.65;;;3.40;99.90;;;;;;4944711;29;20250;-61
2022/03/01 00:05:29;;;;;;;9.98;9.07;;;3.50;99.90;;;;;;4944862;29;20641;-61
2022/03/01 00:07:57;;;;;;;9.80;9.00;;;3.40;99.90;;;;;;4934866;29;20338;-61
2022/03/01 00:10:25;;;;;;;10.20;9.30;;;3.20;99.90;;;;;;4943089;29;20235;-61
2022/03/01 00:12:53;;;;;;;12.00;10.90;;;3.20;99.90;;;;;;4942715;29;20238;-61
2022/03/01 00:15:20;;;;;;;11.50;10.45;;;3.30;99.90;;;;;;4945750;29;20298;-61
2022/03/01 00:17:48;;;;;;;12.02;10.63;;;3.30;99.90;;;;;;4937540;29;20316;-61
2022/03/01 00:20:17;;;;;;;11.73;10.52;;;3.30;99.90;;;;;;4944204;29;20236;-60
2022/03/01 00:22:45;;;;;;;10.85;9.88;;;3.30;99.90;;;;;;4930454;29;20238;-61
2022/03/01 00:25:13;;;;;;;10.32;9.35;;;3.30;99.90;;;;;;4937721;29;20688;-61
2022/03/01 00:27:41;;;;;;;10.23;9.32;;;3.40;99.90;;;;;;4934000;29;20627;-61
2022/03/01 00:30:11;;;;;;;10.93;9.82;;;3.30;99.90;;;;;;4932290;29;20227;-60
2022/03/01 00:32:39;;;;;;;11.63;10.50;;;3.30;99.90;;;;;;4941302;29;20680;-61
2022/03/01 00:35:08;;;;;;;9.75;8.80;;;3.30;99.90;;;;;;4943564;29;20904;-61
2022/03/01 00:37:39;;;;;;;10.30;9.30;;;3.20;99.90;;;;;;4944455;28;20227;-61
2022/03/01 00:40:08;;;;;;;11.60;10.43;;;3.30;99.90;;;;;;4939678;29;20713;-61
2022/03/01 00:42:36;;;;;;;10.55;9.57;;;3.30;99.90;;;;;;4944444;29;20223;-61
2022/03/01 00:45:05;;;;;;;11.25;10.25;;;3.10;99.90;;;;;;4934920;29;20199;-61
2022/03/01 00:47:33;;;;;;;11.90;10.85;;;3.20;99.90;;;;;;4943519;29;20310;-61
2022/03/01 00:50:01;;;;;;;11.35;10.25;;;3.10;99.90;;;;;;4931743;29;20283;-61
2022/03/01 00:52:29;;;;;;;11.90;10.70;;;3.10;99.90;;;;;;4930642;29;20307;-61
2022/03/01 00:54:58;;;;;;;12.82;9.88;;;3.10;99.90;;;;;;4928493;29;20291;-61
2022/03/01 00:57:26;;;;;;;9.80;8.80;;;3.00;99.90;;;;;;4935633;29;20279;-61
2022/03/01 00:59:54;;;;;;;11.48;10.48;;;3.20;99.90;;;;;;4933018;29;20286;-61
2022/03/01 01:02:22;;;;;;;11.20;10.20;;;3.10;99.90;;;;;;4941048;29;20251;-61
2022/03/01 01:04:50;;;;;;;12.15;10.95;;;3.00;99.90;;;;;;4935997;29;20266;-60
2022/03/01 01:07:18;;;;;;;11.57;10.38;;;2.50;99.90;;;;;;4948300;29;20823;-61
2022/03/01 01:09:47;;;;;;;11.50;10.40;;;3.00;99.90;;;;;;4938640;29;20314;-61
2022/03/01 01:12:16;;;;;;;11.85;10.75;;;2.90;99.90;;;;;;4944295;29;20231;-61
2022/03/01 01:14:44;;;;;;;15.23;11.98;;;2.90;99.90;;;;;;4936066;29;20302;-61
2022/03/01 01:17:12;;;;;;;11.50;10.40;;;2.90;99.90;;;;;;4936683;29;20306;-61
2022/03/01 01:19:40;;;;;;;12.13;10.82;;;2.90;99.90;;;;;;4930458;29;20689;-61
2022/03/01 01:24:57;;;;;;;11.70;10.60;;;2.80;99.90;;;;;;4929268;29;20310;-62
2022/03/01 01:27:26;;;;;;;12.43;11.25;;;2.90;99.90;;;;;;4933627;29;20318;-60
2022/03/01 01:29:54;;;;;;;11.50;10.40;;;3.00;99.90;;;;;;4941621;29;20318;-61
2022/03/01 01:32:22;;;;;;;13.10;11.75;;;3.10;99.90;;;;;;4942864;29;20291;-61
2022/03/01 01:34:50;;;;;;;11.98;10.77;;;2.90;99.90;;;;;;4929301;29;20208;-61
2022/03/01 01:37:18;;;;;;;12.48;11.23;;;2.90;99.90;;;;;;4938770;29;20318;-61
2022/03/01 01:39:47;;;;;;;11.95;10.85;;;3.00;99.90;;;;;;4944949;29;20306;-61
2022/03/01 01:42:15;;;;;;;12.95;11.65;;;3.00;99.90;;;;;;4941409;29;20244;-61
2022/03/01 01:44:45;;;;;;;13.15;11.85;;;2.80;99.90;;;;;;4930946;29;20204;-61
2022/03/01 01:47:33;;;;;;;13.63;12.25;;;2.70;99.90;;;;;;4933132;29;21025;-61
2022/03/01 01:50:00;;;;;;;11.63;10.60;;;2.60;99.90;;;;;;4940658;29;20215;-61
2022/03/01 01:52:29;;;;;;;12.32;11.13;;;2.50;99.90;;;;;;4922730;29;20204;-61
2022/03/01 01:54:57;;;;;;;13.30;12.00;;;2.70;99.90;;;;;;4927042;29;20203;-61
2022/03/01 01:57:26;;;;;;;13.88;12.00;;;2.70;99.90;;;;;;4930273;29;20710;-61
2022/03/01 01:59:57;;;;;;;12.15;10.85;;;2.60;99.90;;;;;;4937465;28;20211;-61
2022/03/01 02:02:26;;;;;;;14.38;12.88;;;2.80;99.90;;;;;;4938505;29;20908;-61
2022/03/01 02:04:54;;;;;;;17.17;12.93;;;2.60;99.90;;;;;;4936234;29;20830;-61
2022/03/01 02:07:22;;;;;;;12.45;11.23;;;2.60;99.90;;;;;;4936313;29;20302;-61
2022/03/01 02:09:50;;;;;;;13.45;11.95;;;2.50;99.90;;;;;;4944226;29;20699;-61
2022/03/01 02:12:18;;;;;;;13.27;11.98;;;2.50;99.90;;;;;;4928224;29;20534;-61
2022/03/01 02:14:46;;;;;;;12.63;11.35;;;2.50;99.90;;;;;;4929852;29;20332;-61
2022/03/01 02:17:16;;;;;;;14.45;13.02;;;2.40;99.90;;;;;;4942858;29;20720;-61
2022/03/01 02:19:48;;;;;;;13.05;11.75;;;2.40;99.90;;;;;;4945930;29;20254;-61
2022/03/01 02:22:18;;;;;;;13.82;12.50;;;2.30;99.90;;;;;;4937757;29;20295;-61
2022/03/01 02:24:47;;;;;;;13.20;11.90;;;2.30;99.90;;;;;;4937758;29;20240;-60
2022/03/01 02:27:14;;;;;;;14.00;12.50;;;2.40;99.90;;;;;;4934196;29;20898;-61
2022/03/01 02:29:42;;;;;;;13.70;12.27;;;2.40;99.90;;;;;;4941297;29;20285;-61
2022/03/01 02:32:11;;;;;;;13.07;11.77;;;2.30;99.90;;;;;;4927398;29;20303;-61
2022/03/01 02:34:38;;;;;;;12.75;11.45;;;2.40;99.90;;;;;;4940249;29;21096;-61
2022/03/01 02:37:06;;;;;;;13.60;11.57;;;2.30;99.90;;;;;;4941868;29;20579;-61
2022/03/01 02:39:36;;;;;;;14.02;12.63;;;2.30;99.90;;;;;;4940215;29;20299;-61
2022/03/01 02:42:04;;;;;;;14.02;12.65;;;2.30;99.90;;;;;;4928247;29;20347;-61
2022/03/01 02:44:32;;;;;;;15.02;13.45;;;2.40;99.90;;;;;;4930781;29;20230;-61
2022/03/01 02:47:00;;;;;;;14.30;12.60;;;2.60;99.90;;;;;;4943396;29;20231;-61
2022/03/01 02:49:28;;;;;;;14.40;12.90;;;2.90;99.90;;;;;;4935970;29;20235;-61
2022/03/01 02:51:55;;;;;;;14.73;13.15;;;2.50;99.90;;;;;;4942428;29;20900;-60
2022/03/01 02:54:23;;;;;;;13.80;12.35;;;2.50;99.90;;;;;;4933067;29;20647;-61
2022/03/01 02:56:53;;;;;;;15.35;13.90;;;2.50;99.90;;;;;;4936243;29;20767;-61
2022/03/01 02:59:20;;;;;;;12.77;11.55;;;2.50;99.90;;;;;;4928724;29;20705;-61
2022/03/01 03:01:48;;;;;;;14.68;13.10;;;2.40;99.90;;;;;;4932754;29;20732;-61
2022/03/01 03:04:16;;;;;;;14.82;13.27;;;2.60;99.90;;;;;;4943093;29;20604;-61
2022/03/01 03:06:45;;;;;;;14.48;12.82;;;2.60;99.90;;;;;;4934776;29;20244;-61
2022/03/01 03:09:13;;;;;;;14.73;13.10;;;2.40;99.90;;;;;;4928891;29;20836;-61
2022/03/01 03:11:43;;;;;;;14.57;13.27;;;2.40;99.90;;;;;;4929871;29;20208;-61
2022/03/01 03:14:12;;;;;;;15.52;13.93;;;2.20;99.90;;;;;;4930087;29;20219;-61
2022/03/01 03:16:40;;;;;;;14.68;13.20;;;2.20;99.90;;;;;;4937950;29;20223;-61
2022/03/01 03:19:10;;;;;;;17.63;14.43;;;2.10;99.90;;;;;;4940688;29;20282;-61
2022/03/01 03:21:38;;;;;;;13.82;12.48;;;2.40;99.90;;;;;;4940138;29;20286;-61
2022/03/01 03:24:06;;;;;;;13.60;12.32;;;2.30;99.90;;;;;;4944939;29;20256;-61
2022/03/01 03:26:34;;;;;;;16.67;13.15;;;2.30;99.90;;;;;;4941901;29;20235;-61
2022/03/01 03:29:02;;;;;;;14.85;13.18;;;2.30;99.90;;;;;;4943762;29;20302;-61
2022/03/01 03:31:31;;;;;;;14.05;12.60;;;2.30;99.90;;;;;;4942677;29;20654;-61
2022/03/01 03:33:59;;;;;;;15.10;13.60;;;2.30;99.90;;;;;;4947952;28;20306;-61
2022/03/01 03:36:27;;;;;;;15.00;13.05;;;2.30;99.90;;;;;;4931189;29;20356;-61
2022/03/01 03:38:55;;;;;;;15.43;13.45;;;2.20;99.90;;;;;;4936960;29;20630;-61
2022/03/01 03:41:22;;;;;;;14.75;13.25;;;2.20;99.90;;;;;;4942884;29;20269;-61
2022/03/01 03:43:51;;;;;;;15.05;13.55;;;2.10;99.90;;;;;;4943778;29;20228;-61
2022/03/01 03:46:20;;;;;;;14.20;12.70;;;2.30;99.90;;;;;;4931278;29;20200;-61
2022/03/01 03:48:50;;;;;;;14.80;13.32;;;2.30;99.90;;;;;;4943628;29;20851;-61
2022/03/01 03:51:18;;;;;;;13.95;12.57;;;2.00;99.90;;;;;;4947137;29;20211;-61
2022/03/01 03:53:46;;;;;;;14.52;13.13;;;1.90;99.90;;;;;;4941039;29;20689;-61
2022/03/01 03:56:14;;;;;;;13.48;12.25;;;2.10;99.90;;;;;;4938201;29;20308;-61
2022/03/01 03:58:41;;;;;;;14.57;13.02;;;2.10;99.90;;;;;;4937050;29;20221;-61
2022/03/01 04:01:10;;;;;;;13.80;12.50;;;2.30;99.90;;;;;;4936068;29;20295;-61
2022/03/01 04:03:38;;;;;;;14.90;13.40;;;2.20;99.90;;;;;;4931363;29;20676;-61
2022/03/01 04:06:07;;;;;;;13.85;12.32;;;2.00;99.90;;;;;;4939864;29;20291;-62
2022/03/01 04:08:35;;;;;;;13.25;12.07;;;2.30;99.90;;;;;;4941528;29;20243;-62
2022/03/01 04:11:03;;;;;;;14.75;13.25;;;2.50;99.90;;;;;;4937535;29;20282;-61
2022/03/01 04:13:31;;;;;;;14.95;13.15;;;2.40;99.90;;;;;;4941013;29;20240;-61
2022/03/01 04:16:01;;;;;;;14.60;13.10;;;2.30;99.90;;;;;;4929772;29;20307;-62
2022/03/01 04:18:30;;;;;;;16.77;15.07;;;2.10;99.90;;;;;;4925351;29;20232;-61
2022/03/01 04:20:57;;;;;;;15.27;13.68;;;2.00;99.90;;;;;;4937778;29;20207;-61
2022/03/01 04:23:27;;;;;;;15.13;13.55;;;1.80;99.90;;;;;;4941645;28;20208;-61
2022/03/01 04:25:55;;;;;;;15.07;13.63;;;1.90;99.90;;;;;;4936410;29;20298;-61
2022/03/01 04:28:23;;;;;;;16.40;12.45;;;2.10;99.90;;;;;;4935990;29;20343;-61
2022/03/01 04:30:52;;;;;;;14.95;13.35;;;2.10;99.90;;;;;;4936495;29;20214;-61
2022/03/01 04:33:20;;;;;;;14.00;12.60;;;2.10;99.90;;;;;;4931226;29;20264;-61
2022/03/01 04:35:48;;;;;;;15.38;13.30;;;2.50;99.90;;;;;;4946327;29;20310;-61
2022/03/01 04:38:16;;;;;;;14.32;12.93;;;2.70;99.90;;;;;;4939146;29;20251;-61
2022/03/01 04:40:46;;;;;;;16.10;14.35;;;2.50;99.90;;;;;;4948678;29;20333;-61
2022/03/01 04:43:13;;;;;;;14.13;12.65;;;2.20;99.90;;;;;;4932788;29;20282;-61
2022/03/01 04:45:41;;;;;;;14.98;13.13;;;2.00;99.90;;;;;;4938542;29;20238;-61
2022/03/01 04:48:11;;;;;;;16.80;15.13;;;1.70;99.90;;;;;;4925627;29;20232;-61
2022/03/01 04:50:39;;;;;;;15.20;13.68;;;1.60;99.90;;;;;;4930595;29;20210;-61
2022/03/01 04:53:07;;;;;;;14.35;12.95;;;1.60;99.90;;;;;;4934226;29;20315;-61
2022/03/01 04:55:35;;;;;;;16.52;13.00;;;1.40;99.90;;;;;;4932093;29;20304;-61
2022/03/01 04:58:04;;;;;;;14.93;12.25;;;1.30;99.90;;;;;;4936720;29;20784;-61
2022/03/01 05:00:32;;;;;;;15.07;12.88;;;1.20;99.90;;;;;;4930387;29;20299;-61
2022/03/01 05:03:00;;;;;;;14.77;13.18;;;1.20;99.90;;;;;;4943036;29;20207;-61
2022/03/01 05:05:32;;;;;;;15.10;12.25;;;1.50;99.90;;;;;;4933398;29;20204;-61
2022/03/01 05:08:00;;;;;;;14.13;12.63;;;1.30;99.90;;;;;;4942908;29;20290;-61
2022/03/01 05:10:28;;;;;;;16.60;13.80;;;1.40;99.90;;;;;;4936465;29;20306;-61
2022/03/01 05:12:59;;;;;;;15.05;12.93;;;1.60;99.90;;;;;;4948111;29;20322;-61
2022/03/01 05:15:29;;;;;;;16.23;14.52;;;1.70;99.90;;;;;;4933714;29;20196;-61
2022/03/01 05:17:59;;;;;;;15.20;13.60;;;1.50;99.90;;;;;;4942293;29;20318;-61
2022/03/01 05:20:27;;;;;;;15.60;13.50;;;1.20;99.90;;;;;;4940355;29;20218;-61
2022/03/01 05:22:56;;;;;;;15.95;13.93;;;1.10;99.90;;;;;;4933637;29;20213;-61
2022/03/01 05:25:24;;;;;;;17.60;14.15;;;1.00;99.90;;;;;;4937635;29;20334;-61
2022/03/01 05:27:53;;;;;;;16.27;14.57;;;0.80;99.90;;;;;;4932064;29;20306;-61
2022/03/01 05:30:23;;;;;;;15.90;13.18;;;0.80;99.90;;;;;;4943311;29;20307;-61
2022/03/01 05:32:54;;;;;;;16.20;13.52;;;0.60;99.90;;;;;;4941034;29;20242;-61
2022/03/01 05:35:24;;;;;;;15.25;13.75;;;0.60;99.90;;;;;;4930241;29;20235;-60
2022/03/01 05:37:54;;;;;;;15.65;13.65;;;0.50;99.90;;;;;;4930874;29;21033;-61
2022/03/01 05:40:23;;;;;;;15.27;13.75;;;0.40;99.90;;;;;;4932938;29;20278;-61
2022/03/01 05:42:51;;;;;;;17.45;15.52;;;0.40;99.90;;;;;;4937662;29;20633;-61
2022/03/01 05:45:20;;;;;;;16.88;14.10;;;0.40;99.90;;;;;;4934465;29;20326;-61
2022/03/01 05:47:49;;;;;;;17.95;14.13;;;0.40;99.90;;;;;;4936208;29;20215;-61
2022/03/01 05:50:19;;;;;;;21.70;14.10;;;0.30;99.90;;;;;;4943609;29;20208;-61
2022/03/01 05:52:50;;;;;;;17.73;15.18;;;0.30;99.90;;;;;;4928594;29;20207;-61
2022/03/01 05:55:19;;;;;;;17.13;13.88;;;0.30;99.90;;;;;;4929369;29;20287;-61
2022/03/01 05:57:47;;;;;;;16.10;14.38;;;0.30;99.90;;;;;;4930545;29;20998;-61
2022/03/01 06:00:17;;;;;;;17.15;15.05;;;0.30;99.90;;;;;;4939166;29;20197;-60
2022/03/01 06:02:47;;;;;;;19.50;14.85;;;0.30;99.90;;;;;;4939664;28;20230;-61
2022/03/01 06:05:15;;;;;;;16.40;14.65;;;0.30;99.90;;;;;;4936459;29;20312;-61
2022/03/01 06:07:45;;;;;;;14.98;13.35;;;0.30;99.90;;;;;;4942848;29;20716;-61
2022/03/01 06:10:14;;;;;;;19.75;14.50;;;0.30;99.90;;;;;;4930604;29;20208;-61
2022/03/01 06:12:43;;;;;;;16.88;14.70;;;0.20;99.90;;;;;;4941656;29;20690;-61
2022/03/01 06:15:13;;;;;;;18.30;15.07;;;0.20;99.90;;;;;;4936622;29;20206;-61
2022/03/01 06:17:42;;;;;;;15.43;13.75;;;0.20;99.90;;;;;;4947350;29;20318;-61
2022/03/01 06:20:12;;;;;;;17.92;15.07;;;0.30;99.90;;;;;;4928666;29;20244;-61
2022/03/01 06:22:41;;;;;;;17.42;14.90;;;0.20;99.90;;;;;;4931890;29;20235;-61
2022/03/01 06:25:12;;;;;;;14.95;13.38;;;0.20;99.90;;;;;;4934442;29;20223;-61
2022/03/01 06:27:40;;;;;;;16.00;14.30;;;0.30;99.90;;;;;;4929461;29;20259;-61
2022/03/01 06:30:10;;;;;;;15.90;14.20;;;0.20;99.90;;;;;;4930341;29;20232;-61
2022/03/01 06:32:38;;;;;;;15.98;14.27;;;0.20;99.90;;;;;;4937953;29;20266;-61
2022/03/01 06:35:07;;;;;;;15.38;13.80;;;0.30;99.90;;;;;;4945354;29;20200;-61
2022/03/01 06:37:42;;;;;;;19.52;16.38;;;0.30;99.90;;;;;;4932078;28;20318;-61
2022/03/01 06:40:12;;;;;;;16.70;14.25;;;0.30;99.90;;;;;;4927661;29;20761;-61
2022/03/01 06:42:41;;;;;;;18.90;15.80;;;0.40;99.90;;;;;;4928087;29;20239;-61
2022/03/01 06:45:10;;;;;;;20.02;15.98;;;0.50;99.90;;;;;;4927782;29;20306;-61
2022/03/01 06:47:38;;;;;;;15.77;14.07;;;0.50;99.90;;;;;;4933796;29;20314;-61
2022/03/01 06:50:08;;;;;;;16.77;15.18;;;0.50;99.90;;;;;;4934655;29;20235;-61
2022/03/01 06:52:37;;;;;;;18.15;16.20;;;0.60;99.90;;;;;;4941325;28;20302;-61
2022/03/01 06:55:07;;;;;;;16.40;13.98;;;0.60;99.90;;;;;;4941188;29;20214;-61
2022/03/01 06:57:38;;;;;;;18.05;16.15;;;0.60;99.90;;;;;;4940477;28;20346;-61
2022/03/01 07:00:08;;;;;;;17.77;15.65;;;0.70;99.90;;;;;;4930185;29;20227;-61
2022/03/01 07:02:38;;;;;;;17.35;14.88;;;0.70;99.90;;;;;;4935760;29;20629;-61
2022/03/01 07:05:08;;;;;;;16.23;14.73;;;0.80;99.90;;;;;;4936501;29;20224;-60
2022/03/01 07:07:36;;;;;;;15.90;13.93;;;0.90;99.90;;;;;;4948318;28;20261;-61
2022/03/01 07:10:06;;;;;;;15.60;14.02;;;0.90;99.90;;;;;;4946812;28;20299;-60
2022/03/01 07:12:36;;;;;;;16.90;14.15;;;1.00;99.90;;;;;;4947752;29;20692;-60
2022/03/01 07:15:04;;;;;;;14.63;13.00;;;1.10;99.90;;;;;;4942650;29;20816;-61
2022/03/01 07:17:33;;;;;;;14.93;13.38;;;1.20;99.90;;;;;;4943143;29;20274;-61
2022/03/01 07:20:01;;;;;;;17.02;15.05;;;1.30;99.90;;;;;;4934741;29;20261;-61
2022/03/01 07:22:29;;;;;;;17.13;14.07;;;1.40;99.90;;;;;;4945762;28;20223;-61
2022/03/01 07:24:58;;;;;;;14.45;12.95;;;1.40;99.90;;;;;;4939310;29;20310;-61
2022/03/01 07:27:27;;;;;;;17.00;13.75;;;1.50;99.90;;;;;;4937301;29;20322;-60
2022/03/01 07:29:57;;;;;;;15.85;13.43;;;1.50;99.90;;;;;;4937085;29;20208;-61
2022/03/01 07:32:25;;;;;;;16.20;14.50;;;1.60;99.90;;;;;;4969389;23;20380;-62
2022/03/01 07:34:53;;;;;;;14.70;13.20;;;1.70;99.90;;;;;;4954605;28;20379;-61
2022/03/01 07:37:24;;;;;;;15.60;13.95;;;1.80;99.90;;;;;;4955602;28;20203;-61
2022/03/01 07:39:55;;;;;;;16.35;14.65;;;2.00;99.90;;;;;;4955291;29;20199;-62
2022/03/01 07:42:23;;;;;;;15.55;13.85;;;2.00;99.90;;;;;;4951053;29;20247;-61
2022/03/01 07:44:51;;;;;;;14.50;13.00;;;2.20;99.90;;;;;;4945607;29;20294;-61
2022/03/01 07:47:20;;;;;;;14.15;12.65;;;2.30;99.90;;;;;;4952377;28;20322;-60
2022/03/01 07:49:49;;;;;;;17.25;15.20;;;2.40;99.90;;;;;;4946171;28;20200;-61
2022/03/01 07:52:17;;;;;;;14.85;13.35;;;2.60;99.90;;;;;;4946922;29;20748;-62
2022/03/01 07:54:45;;;;;;;15.10;13.27;;;2.60;99.90;;;;;;4951279;29;20334;-61
2022/03/01 07:57:13;;;;;;;13.10;11.80;;;2.70;99.90;;;;;;4942481;29;20215;-62
2022/03/01 07:59:41;;;;;;;15.30;13.70;;;2.70;99.90;;;;;;4943636;29;20283;-61
2022/03/01 08:02:09;;;;;;;14.50;13.00;;;2.80;99.90;;;;;;4947375;29;20227;-63
2022/03/01 08:04:41;;;;;;;14.90;13.43;;;2.90;99.90;;;;;;4951239;29;20211;-61
2022/03/01 08:07:10;;;;;;;14.73;13.25;;;3.00;99.90;;;;;;4953420;29;20255;-62
2022/03/01 08:09:38;;;;;;;14.38;12.82;;;3.00;99.90;;;;;;4941507;29;20581;-62
2022/03/01 08:12:07;;;;;;;13.35;11.95;;;3.10;99.90;;;;;;4944162;29;20370;-62
2022/03/01 08:14:36;;;;;;;14.27;12.77;;;3.30;99.90;;;;;;4944556;29;20294;-62
2022/03/01 08:17:04;;;;;;;15.68;13.38;;;3.40;99.90;;;;;;4941783;28;20311;-61
2022/03/01 08:19:32;;;;;;;14.02;12.63;;;3.50;99.90;;;;;;4940307;29;20286;-62
2022/03/01 08:22:02;;;;;;;14.00;12.68;;;3.60;99.90;;;;;;4943304;29;20780;-60
2022/03/01 08:24:30;;;;;;;14.13;12.73;;;3.60;99.90;;;;;;4952924;29;20250;-62
2022/03/01 08:26:59;;;;;;;14.77;13.07;;;3.80;99.90;;;;;;4948058;29;20330;-63
2022/03/01 08:29:28;;;;;;;13.88;11.98;;;3.90;99.90;;;;;;4953909;29;20231;-62
2022/03/01 08:31:57;;;;;;;14.95;12.85;;;4.00;99.90;;;;;;4953220;29;20249;-62
2022/03/01 08:34:26;;;;;;;16.02;12.45;;;4.20;99.90;;;;;;4955237;29;20641;-61
2022/03/01 08:36:53;;;;;;;13.10;11.70;;;4.40;99.90;;;;;;4955206;28;20234;-62
2022/03/01 08:39:23;;;;;;;18.58;11.23;;;4.50;99.90;;;;;;4953772;29;20207;-62
2022/03/01 08:41:54;;;;;;;13.95;11.93;;;4.70;99.90;;;;;;4954680;29;20680;-61
2022/03/01 08:44:22;;;;;;;14.25;12.73;;;4.90;99.70;;;;;;4954531;29;20290;-62
2022/03/01 08:46:52;;;;;;;14.38;11.82;;;5.10;98.60;;;;;;4953355;28;20274;-62
2022/03/01 08:49:19;;;;;;;13.85;12.02;;;5.20;99.00;;;;;;4954090;28;20290;-60
2022/03/01 08:51:47;;;;;;;14.27;12.15;;;5.40;98.30;;;;;;4954907;29;20318;-61
2022/03/01 08:54:15;;;;;;;13.20;11.68;;;5.50;98.70;;;;;;4950985;29;20294;-60
2022/03/01 08:56:46;;;;;;;14.90;12.30;;;5.80;97.30;;;;;;4952059;28;20672;-62
2022/03/01 08:59:14;;;;;;;13.57;12.15;;;5.90;97.30;;;;;;4950697;29;20525;-61
2022/03/01 09:01:42;;;;;;;12.85;11.52;;;6.10;96.80;;;;;;4954334;29;20313;-62
2022/03/01 09:04:09;;;;;;;14.63;12.35;;;6.20;95.90;;;;;;4951503;29;20222;-62
2022/03/01 09:06:38;;;;;;;14.98;11.95;;;6.20;95.70;;;;;;4945819;29;20227;-62
2022/03/01 09:09:06;;;;;;;12.40;11.07;;;6.40;96.40;;;;;;4941299;28;20306;-62
2022/03/01 09:11:34;;;;;;;11.70;10.18;;;6.60;95.60;;;;;;4941058;29;20251;-62
2022/03/01 09:14:04;;;;;;;12.50;11.23;;;6.60;93.90;;;;;;4942099;29;20285;-61
2022/03/01 09:16:31;;;;;;;13.48;11.65;;;6.60;94.20;;;;;;4938386;29;20636;-62
2022/03/01 09:18:59;;;;;;;12.80;10.82;;;6.40;93.50;;;;;;4941099;29;20214;-61
2022/03/01 09:21:28;;;;;;;14.35;11.73;;;6.40;93.90;;;;;;4940038;29;20207;-62
2022/03/01 09:23:56;;;;;;;13.00;11.60;;;6.60;94.30;;;;;;4943742;29;20282;-61
2022/03/01 09:26:24;;;;;;;14.90;11.70;;;6.80;93.70;;;;;;4939715;29;20310;-62
2022/03/01 09:28:52;;;;;;;12.65;10.45;;;7.00;92.70;;;;;;4946294;29;20208;-62
2022/03/01 09:31:21;;;;;;;14.77;11.80;;;7.30;92.50;;;;;;4942723;29;20286;-61
2022/03/01 09:33:49;;;;;;;14.38;10.70;;;7.40;91.90;;;;;;4940690;29;20207;-62
2022/03/01 09:36:17;;;;;;;15.55;10.65;;;7.50;92.80;;;;;;4942840;29;20296;-61
2022/03/01 09:38:45;;;;;;;12.27;9.52;;;7.40;91.50;;;;;;4939139;29;20311;-62
2022/03/01 09:41:14;;;;;;;13.27;10.48;;;7.80;91.90;;;;;;4941796;29;20203;-62
2022/03/01 09:43:43;;;;;;;11.00;9.90;;;8.00;91.40;;;;;;4940646;29;20284;-62
2022/03/01 09:46:15;;;;;;;11.77;10.30;;;8.00;90.60;;;;;;4939920;29;20208;-62
2022/03/01 09:48:45;;;;;;;11.38;9.38;;;8.10;90.20;;;;;;4938634;28;20222;-63
2022/03/01 09:51:13;;;;;;;11.93;10.23;;;8.20;90.00;;;;;;4941273;29;20266;-62
2022/03/01 09:53:41;;;;;;;12.57;10.38;;;8.30;89.80;;;;;;4941180;29;20290;-63
2022/03/01 09:56:10;;;;;;;10.68;9.57;;;8.60;89.10;;;;;;4947533;29;20298;-62
2022/03/01 09:58:39;;;;;;;13.05;10.18;;;8.40;86.70;;;;;;4943804;29;20692;-61
2022/03/01 10:01:07;;;;;;;15.88;11.80;;;8.70;87.70;;;;;;4944105;29;20230;-62
2022/03/01 10:03:36;;;;;;;12.07;10.68;;;8.80;86.70;;;;;;4953285;29;20254;-63
2022/03/01 10:06:11;;;;;;;10.68;8.23;;;9.10;85.60;;;;;;4948360;29;20214;-62
2022/03/01 10:08:40;;;;;;;11.45;9.80;;;9.40;85.50;;;;;;4944726;29;20651;-62
2022/03/01 10:11:09;;;;;;;12.90;9.80;;;9.60;83.70;;;;;;4945584;29;20208;-63
2022/03/01 10:13:41;;;;;;;11.13;9.73;;;9.20;83.40;;;;;;4943780;29;20204;-62
2022/03/01 10:16:11;;;;;;;11.40;10.10;;;8.60;82.20;;;;;;4944375;29;20294;-62
2022/03/01 10:18:43;;;;;;;9.30;7.70;;;8.40;84.70;;;;;;4947424;29;20214;-63
2022/03/01 10:21:13;;;;;;;11.55;10.18;;;8.40;84.40;;;;;;4946901;28;20231;-62
2022/03/01 10:23:46;;;;;;;11.50;9.60;;;8.80;84.30;;;;;;4947260;29;20286;-62
2022/03/01 10:26:16;;;;;;;10.13;8.50;;;9.40;83.40;;;;;;4943433;29;20205;-62
2022/03/01 10:28:45;;;;;;;9.70;8.75;;;9.80;81.50;;;;;;4940128;29;20247;-63
2022/03/01 10:31:15;;;;;;;11.15;9.70;;;9.80;79.80;;;;;;4943831;29;21042;-63
2022/03/01 10:33:54;;;;;;;9.63;8.52;;;10.20;79.30;;;;;;4943040;29;20212;-62
2022/03/01 10:36:25;;;;;;;11.55;9.73;;;10.80;79.40;;;;;;4946026;29;20234;-62
2022/03/01 10:38:57;;;;;;;10.60;9.35;;;11.00;78.50;;;;;;4940934;29;20238;-62
2022/03/01 10:41:26;;;;;;;10.60;9.50;;;10.50;76.40;;;;;;4946306;29;20597;-62
2022/03/01 10:43:57;;;;;;;11.95;10.52;;;10.50;77.90;;;;;;4941906;29;20250;-62
2022/03/01 10:46:25;;;;;;;10.20;9.20;;;10.30;75.70;;;;;;4941369;29;20247;-62
2022/03/01 10:49:07;;;;;;;10.43;9.13;;;10.30;77.80;;;;;;4947581;29;20223;-61
2022/03/01 10:51:48;;;;;;;8.60;7.80;;;10.10;77.10;;;;;;4947040;29;20265;-62
2022/03/01 10:54:28;;;;;;;12.05;8.82;;;10.50;75.60;;;;;;4947423;28;20518;-63
2022/03/01 10:56:56;;;;;;;10.60;9.55;;;11.00;75.20;;;;;;4942583;28;20628;-61
2022/03/01 10:59:25;;;;;;;9.77;8.73;;;11.10;75.00;;;;;;4944467;29;20310;-63
2022/03/01 11:01:54;;;;;;;11.63;9.38;;;11.10;74.70;;;;;;4942577;29;20729;-63
2022/03/01 11:04:24;;;;;;;10.15;9.15;;;11.00;73.20;;;;;;4939135;29;20212;-62
2022/03/01 11:06:55;;;;;;;10.32;9.18;;;10.90;73.00;;;;;;4939522;29;20238;-63
2022/03/01 11:09:25;;;;;;;10.85;9.65;;;11.20;73.40;;;;;;4944371;29;20780;-63
2022/03/01 11:11:55;;;;;;;8.90;7.82;;;11.40;72.60;;;;;;4941161;29;21069;-63
2022/03/01 11:14:27;;;;;;;12.20;8.80;;;11.60;72.70;;;;;;4946650;29;20744;-63
2022/03/01 11:17:04;;;;;;;8.77;7.75;;;11.80;70.60;;;;;;4947608;29;20660;-63
2022/03/01 11:19:55;;;;;;;9.63;8.55;;;11.90;70.60;;;;;;4946333;29;20773;-62
2022/03/01 11:22:30;;;;;;;10.65;8.20;;;12.00;70.60;;;;;;4947169;29;20258;-63
2022/03/01 11:24:58;;;;;;;11.82;8.60;;;12.70;69.70;;;;;;4943139;29;20213;-63
2022/03/01 11:27:27;;;;;;;9.30;8.18;;;12.80;67.80;;;;;;4947335;29;20587;-62
2022/03/01 11:30:06;;;;;;;8.10;7.40;;;12.50;67.70;;;;;;4947072;29;20799;-63
2022/03/01 11:32:39;;;;;;;10.40;8.63;;;12.60;67.20;;;;;;4942032;29;20298;-62
2022/03/01 11:35:07;;;;;;;11.25;8.60;;;12.30;66.90;;;;;;4944674;29;20207;-63
2022/03/01 11:37:36;;;;;;;9.10;8.30;;;12.30;68.00;;;;;;4945400;29;20203;-64
2022/03/01 11:40:06;;;;;;;9.20;7.80;;;12.10;66.80;;;;;;4945725;28;20288;-62
2022/03/01 11:42:35;;;;;;;11.30;8.80;;;11.80;68.00;;;;;;4949594;28;20310;-63
2022/03/01 11:45:09;;;;;;;9.88;8.88;;;11.10;69.90;;;;;;4950598;29;20211;-62
2022/03/01 11:47:38;;;;;;;10.00;7.70;;;10.60;69.00;;;;;;4947914;29;20254;-63
2022/03/01 11:50:23;;;;;;;13.75;8.00;;;10.50;70.00;;;;;;4950568;29;20211;-62
2022/03/01 11:52:57;;;;;;;9.00;7.78;;;10.70;70.30;;;;;;4947308;28;20227;-63
2022/03/01 11:55:35;;;;;;;9.45;8.45;;;10.80;70.70;;;;;;4941765;29;20287;-62
2022/03/01 11:58:04;;;;;;;10.68;8.18;;;11.20;69.70;;;;;;4947051;29;21101;-62
2022/03/01 12:00:34;;;;;;;10.10;8.32;;;11.70;70.50;;;;;;4948320;29;20442;-63
2022/03/01 12:03:03;;;;;;;9.18;7.35;;;11.90;70.50;;;;;;4944694;29;20259;-61
2022/03/01 12:05:38;;;;;;;9.85;7.75;;;12.10;67.70;;;;;;4947272;29;20199;-62
2022/03/01 12:08:09;;;;;;;9.18;8.25;;;12.40;68.10;;;;;;4948880;29;20318;-62
2022/03/01 12:10:57;;;;;;;11.73;8.98;;;12.40;67.10;;;;;;4950797;29;20195;-63
2022/03/01 12:13:36;;;;;;;12.73;9.63;;;12.50;68.30;;;;;;4942469;29;20277;-63
2022/03/01 12:16:05;;;;;;;9.75;8.85;;;12.90;67.70;;;;;;4950599;29;20230;-63
2022/03/01 12:18:35;;;;;;;9.75;8.75;;;12.60;68.00;;;;;;4941466;29;20214;-65
2022/03/01 12:21:05;;;;;;;9.57;8.57;;;12.80;67.30;;;;;;4949873;29;20668;-63
2022/03/01 12:23:40;;;;;;;11.65;9.15;;;12.90;66.10;;;;;;4945103;29;20211;-63
2022/03/01 12:26:10;;;;;;;9.27;8.18;;;13.10;65.80;;;;;;4942317;29;20235;-63
2022/03/01 12:28:40;;;;;;;11.77;8.13;;;13.30;65.90;;;;;;4944355;29;20739;-64
2022/03/01 12:31:10;;;;;;;9.35;8.45;;;13.50;64.50;;;;;;4948422;29;20866;-63
2022/03/01 12:33:48;;;;;;;10.43;8.48;;;13.40;63.90;;;;;;4944547;28;20319;-63
2022/03/01 12:36:24;;;;;;;10.68;8.23;;;13.60;64.10;;;;;;4938989;29;20258;-62
2022/03/01 12:38:55;;;;;;;8.38;7.57;;;13.30;62.10;;;;;;4946153;29;20225;-63
2022/03/01 12:41:24;;;;;;;10.07;7.25;;;13.20;61.80;;;;;;4944673;29;20239;-62
2022/03/01 12:43:53;;;;;;;8.35;7.43;;;13.20;61.10;;;;;;4941472;28;20199;-63
2022/03/01 12:46:22;;;;;;;7.82;6.78;;;13.30;60.40;;;;;;4948023;29;20262;-63
2022/03/01 12:48:51;;;;;;;7.63;6.93;;;13.70;58.70;;;;;;4947973;29;20227;-63
2022/03/01 12:51:20;;;;;;;7.20;6.50;;;13.60;59.70;;;;;;4949562;29;20618;-63